Time;durP1;ratioP1;P1;durP2;ratioP2;P2;SDS_P1;SDS_P2;PMS_P1;PMS_P2;Temp;Humidity;BMP_temperature;BMP_pressure;BME280_temperature;BME280_humidity;BME280_pressure;Samples;Min_cycle;Max_cycle;Signal;HPM_P1;HPM_P2
2023/04/04 00:00:30;;;;;;;12.07;1.70;;;;;;;;;;5083943;28;20144;-47
2023/04/04 00:02:57;;;;;;;6.80;1.50;;;;;;;;;;5078844;28;20044;-46
2023/04/04 00:05:27;;;;;;;6.30;1.80;;;;;;;;;;5082803;28;20032;-45
2023/04/04 00:07:54;;;;;;;5.82;1.60;;;;;;;;;;5086565;28;20035;-43
2023/04/04 00:10:23;;;;;;;7.45;1.70;;;;;;;;;;5083380;28;20048;-44
2023/04/04 00:12:51;;;;;;;9.97;1.70;;;;;;;;;;5073059;28;20738;-44
2023/04/04 00:15:18;;;;;;;10.60;1.67;;;;;;;;;;5078190;28;20046;-44
2023/04/04 00:17:46;;;;;;;7.53;1.98;;;;;;;;;;5083974;28;20070;-42
2023/04/04 00:20:14;;;;;;;10.98;1.58;;;;;;;;;;5082223;28;20027;-44
2023/04/04 00:22:42;;;;;;;6.43;2.10;;;;;;;;;;5079613;28;20044;-43
2023/04/04 00:25:10;;;;;;;8.07;1.47;;;;;;;;;;5084378;28;20061;-42
2023/04/04 00:27:39;;;;;;;7.28;1.60;;;;;;;;;;5075795;28;20046;-43
2023/04/04 00:30:08;;;;;;;7.63;1.70;;;;;;;;;;5076679;28;20042;-43
2023/04/04 00:32:35;;;;;;;9.25;1.92;;;;;;;;;;5095108;28;20050;-42
2023/04/04 00:35:03;;;;;;;6.05;1.52;;;;;;;;;;5075880;28;20047;-43
2023/04/04 00:37:31;;;;;;;8.27;1.83;;;;;;;;;;5095514;28;20075;-43
2023/04/04 00:39:58;;;;;;;11.10;2.00;;;;;;;;;;5086247;28;20039;-45
2023/04/04 00:42:27;;;;;;;11.18;2.05;;;;;;;;;;5082596;28;20458;-43
2023/04/04 00:44:56;;;;;;;7.00;1.60;;;;;;;;;;5088557;28;20043;-44
2023/04/04 00:47:24;;;;;;;8.07;2.03;;;;;;;;;;5088049;28;20042;-43
2023/04/04 00:49:52;;;;;;;7.20;2.00;;;;;;;;;;5092415;28;20127;-44
2023/04/04 00:52:20;;;;;;;7.60;1.70;;;;;;;;;;5080439;28;20036;-45
2023/04/04 00:54:48;;;;;;;8.10;1.85;;;;;;;;;;5086904;28;20039;-44
2023/04/04 00:57:17;;;;;;;11.65;2.15;;;;;;;;;;5076801;28;20493;-45
2023/04/04 00:59:44;;;;;;;5.80;1.50;;;;;;;;;;5081682;28;20044;-43
2023/04/04 01:02:13;;;;;;;7.27;1.70;;;;;;;;;;5087742;28;21361;-44
2023/04/04 01:04:41;;;;;;;8.23;1.83;;;;;;;;;;5080154;28;20044;-44
2023/04/04 01:07:09;;;;;;;7.47;1.63;;;;;;;;;;5090930;28;20047;-45
2023/04/04 01:09:37;;;;;;;8.82;2.08;;;;;;;;;;5084512;28;20043;-43
2023/04/04 01:12:05;;;;;;;4.60;1.35;;;;;;;;;;5087580;28;20035;-43
2023/04/04 01:14:32;;;;;;;4.73;1.17;;;;;;;;;;5068408;28;20729;-43
2023/04/04 01:17:01;;;;;;;7.97;1.70;;;;;;;;;;5080016;28;20473;-45
2023/04/04 01:19:33;;;;;;;6.72;1.73;;;;;;;;;;5081183;28;20046;-45
2023/04/04 01:22:01;;;;;;;7.43;1.58;;;;;;;;;;5088891;28;20093;-46
2023/04/04 01:24:33;;;;;;;9.82;2.10;;;;;;;;;;5085903;28;20028;-44
2023/04/04 01:27:02;;;;;;;9.20;1.73;;;;;;;;;;5085726;28;20071;-43
2023/04/04 01:29:29;;;;;;;6.55;1.50;;;;;;;;;;5077095;28;20036;-44
2023/04/04 01:32:00;;;;;;;6.00;1.80;;;;;;;;;;5074299;28;20043;-42
2023/04/04 01:34:30;;;;;;;8.82;1.90;;;;;;;;;;5085413;28;20104;-43
2023/04/04 01:37:01;;;;;;;8.00;1.75;;;;;;;;;;5102388;27;20039;-42
2023/04/04 01:39:31;;;;;;;7.47;1.87;;;;;;;;;;5076851;28;20114;-42
2023/04/04 01:42:01;;;;;;;7.88;1.58;;;;;;;;;;5089541;28;20039;-43
2023/04/04 01:44:30;;;;;;;7.70;1.70;;;;;;;;;;5071961;28;20089;-44
2023/04/04 01:46:59;;;;;;;6.03;1.45;;;;;;;;;;5084671;28;20040;-43
2023/04/04 01:49:27;;;;;;;7.18;1.60;;;;;;;;;;5064383;28;20440;-44
2023/04/04 01:51:55;;;;;;;7.77;1.73;;;;;;;;;;5076218;28;20065;-42
2023/04/04 01:54:23;;;;;;;8.15;2.00;;;;;;;;;;5073005;28;20118;-44
2023/04/04 01:56:51;;;;;;;7.05;1.70;;;;;;;;;;5076314;28;20448;-44
2023/04/04 01:59:19;;;;;;;7.35;2.42;;;;;;;;;;5074990;28;20074;-43
2023/04/04 02:01:49;;;;;;;8.15;2.03;;;;;;;;;;5086246;28;20820;-43
2023/04/04 02:04:17;;;;;;;10.07;1.93;;;;;;;;;;5088633;28;20493;-43
2023/04/04 02:06:45;;;;;;;7.80;2.05;;;;;;;;;;5090937;28;20044;-43
2023/04/04 02:09:12;;;;;;;7.60;2.20;;;;;;;;;;5084677;28;20517;-43
2023/04/04 02:11:40;;;;;;;7.22;1.83;;;;;;;;;;5094652;28;20039;-44
2023/04/04 02:14:07;;;;;;;7.80;1.80;;;;;;;;;;5079991;28;20452;-42
2023/04/04 02:16:35;;;;;;;8.43;1.97;;;;;;;;;;5079402;28;20073;-44
2023/04/04 02:19:04;;;;;;;7.03;1.70;;;;;;;;;;5065071;28;20407;-42
2023/04/04 02:21:33;;;;;;;8.13;1.80;;;;;;;;;;5072760;28;20628;-42
2023/04/04 02:24:01;;;;;;;8.50;1.63;;;;;;;;;;5071778;28;20195;-43
2023/04/04 02:26:29;;;;;;;6.28;1.60;;;;;;;;;;5083396;28;20617;-44
2023/04/04 02:28:56;;;;;;;6.17;1.87;;;;;;;;;;5075979;28;20119;-44
2023/04/04 02:31:24;;;;;;;9.85;2.17;;;;;;;;;;5084939;28;20035;-44
2023/04/04 02:33:52;;;;;;;13.95;2.47;;;;;;;;;;5084299;28;20043;-43
2023/04/04 02:36:21;;;;;;;6.68;1.60;;;;;;;;;;5070896;28;20128;-43
2023/04/04 02:38:48;;;;;;;7.82;1.85;;;;;;;;;;5072807;28;20130;-46
2023/04/04 02:41:16;;;;;;;8.73;2.10;;;;;;;;;;5075213;28;20449;-42
2023/04/04 02:43:46;;;;;;;9.00;2.15;;;;;;;;;;5087823;28;20036;-42
2023/04/04 02:46:14;;;;;;;6.70;1.60;;;;;;;;;;5077170;28;20378;-44
2023/04/04 02:48:49;;;;;;;6.75;2.05;;;;;;;;;;5077192;28;20130;-42
2023/04/04 02:51:17;;;;;;;6.95;2.00;;;;;;;;;;5081011;28;20032;-42
2023/04/04 02:53:46;;;;;;;7.23;1.77;;;;;;;;;;5078469;28;20484;-43
2023/04/04 02:56:14;;;;;;;9.73;2.80;;;;;;;;;;5076231;28;20130;-44
2023/04/04 02:58:42;;;;;;;7.30;1.55;;;;;;;;;;5083053;28;20074;-44
2023/04/04 03:01:09;;;;;;;5.82;2.08;;;;;;;;;;5061704;28;20520;-42
2023/04/04 03:03:37;;;;;;;6.97;2.05;;;;;;;;;;5074708;28;20129;-44
2023/04/04 03:06:07;;;;;;;7.23;1.60;;;;;;;;;;5086611;28;20040;-43
2023/04/04 03:08:35;;;;;;;8.38;1.92;;;;;;;;;;5079253;28;20036;-44
2023/04/04 03:11:04;;;;;;;6.05;1.65;;;;;;;;;;5066799;28;20044;-43
2023/04/04 03:13:32;;;;;;;8.63;1.80;;;;;;;;;;5081378;28;20028;-44
2023/04/04 03:16:01;;;;;;;7.25;1.83;;;;;;;;;;5079201;28;20071;-44
2023/04/04 03:18:29;;;;;;;7.63;1.83;;;;;;;;;;5084799;28;20043;-43
2023/04/04 03:20:57;;;;;;;10.90;2.00;;;;;;;;;;5084652;28;20126;-43
2023/04/04 03:23:24;;;;;;;8.70;1.98;;;;;;;;;;5081838;28;20098;-43
2023/04/04 03:25:53;;;;;;;6.82;1.52;;;;;;;;;;5073787;28;20434;-44
2023/04/04 03:28:23;;;;;;;6.63;2.00;;;;;;;;;;5085996;28;20047;-43
2023/04/04 03:30:50;;;;;;;5.50;1.37;;;;;;;;;;5077193;28;20048;-43
2023/04/04 03:33:18;;;;;;;7.65;1.67;;;;;;;;;;5069534;28;20097;-46
2023/04/04 03:35:46;;;;;;;8.68;1.80;;;;;;;;;;5082058;28;20088;-43
2023/04/04 03:38:14;;;;;;;6.10;1.63;;;;;;;;;;5076978;28;20513;-43
2023/04/04 03:40:42;;;;;;;7.68;1.90;;;;;;;;;;5072855;28;20505;-43
2023/04/04 03:43:15;;;;;;;6.63;1.80;;;;;;;;;;5088423;28;20086;-42
2023/04/04 03:45:44;;;;;;;10.02;1.80;;;;;;;;;;5073832;28;20063;-44
2023/04/04 03:48:12;;;;;;;6.25;1.42;;;;;;;;;;5073406;28;20724;-43
2023/04/04 03:50:40;;;;;;;8.20;2.20;;;;;;;;;;5077537;28;20054;-43
2023/04/04 03:53:08;;;;;;;8.20;1.73;;;;;;;;;;5082068;27;20731;-44
2023/04/04 03:55:35;;;;;;;7.13;1.50;;;;;;;;;;5085575;28;20361;-43
2023/04/04 03:58:03;;;;;;;9.05;1.70;;;;;;;;;;5087920;28;20031;-48
2023/04/04 04:00:31;;;;;;;8.60;2.00;;;;;;;;;;5067099;28;20074;-44
2023/04/04 04:03:00;;;;;;;7.32;1.67;;;;;;;;;;5088957;28;20130;-45
2023/04/04 04:05:27;;;;;;;11.60;2.30;;;;;;;;;;5076636;28;20048;-45
2023/04/04 04:07:55;;;;;;;7.80;2.37;;;;;;;;;;5085461;28;20270;-46
2023/04/04 04:10:23;;;;;;;9.48;2.38;;;;;;;;;;5089888;28;20136;-45
2023/04/04 04:12:50;;;;;;;6.65;2.20;;;;;;;;;;5076917;28;20747;-44
2023/04/04 04:15:18;;;;;;;8.45;2.05;;;;;;;;;;5082929;28;20106;-45
2023/04/04 04:17:46;;;;;;;9.05;2.50;;;;;;;;;;5090276;28;20135;-44
2023/04/04 04:20:15;;;;;;;9.73;2.10;;;;;;;;;;5088576;28;20051;-42
2023/04/04 04:22:45;;;;;;;10.90;2.22;;;;;;;;;;5080298;28;20131;-44
2023/04/04 04:25:13;;;;;;;7.65;1.73;;;;;;;;;;5088648;28;20074;-45
2023/04/04 04:27:41;;;;;;;8.13;1.90;;;;;;;;;;5079317;28;20046;-46
2023/04/04 04:30:09;;;;;;;6.95;2.03;;;;;;;;;;5090375;28;20122;-42
2023/04/04 04:32:37;;;;;;;9.00;2.10;;;;;;;;;;5079643;27;20040;-43
2023/04/04 04:35:05;;;;;;;6.72;1.90;;;;;;;;;;5079898;27;20128;-44
2023/04/04 04:37:34;;;;;;;8.13;2.05;;;;;;;;;;5084653;28;20067;-44
2023/04/04 04:40:02;;;;;;;12.00;2.58;;;;;;;;;;5096914;28;20123;-43
2023/04/04 04:42:30;;;;;;;7.78;1.95;;;;;;;;;;5075718;28;20039;-43
2023/04/04 04:44:57;;;;;;;10.27;2.20;;;;;;;;;;5084405;28;20089;-42
2023/04/04 04:47:25;;;;;;;8.98;2.60;;;;;;;;;;5077789;28;20071;-42
2023/04/04 04:49:53;;;;;;;10.27;2.75;;;;;;;;;;5081225;28;20064;-45
2023/04/04 04:52:21;;;;;;;9.68;2.80;;;;;;;;;;5089513;28;20083;-42
2023/04/04 04:54:50;;;;;;;12.27;2.90;;;;;;;;;;5083163;28;20393;-43
2023/04/04 04:57:18;;;;;;;8.30;2.47;;;;;;;;;;5079726;28;20081;-43
2023/04/04 04:59:46;;;;;;;11.70;3.03;;;;;;;;;;5089690;28;20696;-43
2023/04/04 05:02:13;;;;;;;8.23;2.38;;;;;;;;;;5085302;28;20423;-45
2023/04/04 05:04:43;;;;;;;11.25;2.45;;;;;;;;;;5083121;28;20470;-43
2023/04/04 05:07:12;;;;;;;10.68;3.13;;;;;;;;;;5087395;28;20077;-43
2023/04/04 05:09:39;;;;;;;11.37;2.50;;;;;;;;;;5084304;28;20445;-44
2023/04/04 05:12:08;;;;;;;9.70;2.88;;;;;;;;;;5089096;28;20103;-44
2023/04/04 05:14:36;;;;;;;10.07;2.47;;;;;;;;;;5086584;28;20118;-44
2023/04/04 05:17:04;;;;;;;11.60;3.03;;;;;;;;;;5087135;28;20072;-44
2023/04/04 05:19:31;;;;;;;7.30;2.65;;;;;;;;;;5079929;28;20725;-42
2023/04/04 05:21:59;;;;;;;6.40;2.10;;;;;;;;;;5075560;28;20597;-43
2023/04/04 05:24:27;;;;;;;7.78;2.47;;;;;;;;;;5085921;28;20027;-43
2023/04/04 05:26:55;;;;;;;9.10;2.95;;;;;;;;;;5089218;28;20043;-45
2023/04/04 05:29:24;;;;;;;7.00;2.67;;;;;;;;;;5080010;28;20130;-44
2023/04/04 05:31:52;;;;;;;9.30;2.38;;;;;;;;;;5084179;28;20061;-44
2023/04/04 05:34:19;;;;;;;9.10;2.80;;;;;;;;;;5072346;28;20608;-43
2023/04/04 05:36:47;;;;;;;11.13;3.10;;;;;;;;;;5076831;28;20067;-43
2023/04/04 05:39:15;;;;;;;10.80;3.00;;;;;;;;;;5072294;28;20032;-42
2023/04/04 05:41:42;;;;;;;8.40;2.15;;;;;;;;;;5077988;28;20122;-42
2023/04/04 05:44:10;;;;;;;10.52;2.92;;;;;;;;;;5074527;28;20102;-43
2023/04/04 05:46:39;;;;;;;11.37;3.37;;;;;;;;;;5080283;28;20040;-42
2023/04/04 05:49:07;;;;;;;11.88;2.88;;;;;;;;;;5075566;28;20383;-42
2023/04/04 05:51:34;;;;;;;14.93;4.38;;;;;;;;;;5087338;28;20035;-43
2023/04/04 05:54:02;;;;;;;12.18;3.38;;;;;;;;;;5088949;28;20071;-42
2023/04/04 05:56:30;;;;;;;12.93;3.03;;;;;;;;;;5081259;28;20111;-43
2023/04/04 05:58:57;;;;;;;11.57;4.10;;;;;;;;;;5073847;28;20449;-44
2023/04/04 06:01:25;;;;;;;9.40;3.60;;;;;;;;;;5086877;28;20659;-44
2023/04/04 06:03:54;;;;;;;10.23;3.58;;;;;;;;;;5089440;28;20574;-43
2023/04/04 06:06:22;;;;;;;10.20;3.45;;;;;;;;;;5089366;28;20108;-43
2023/04/04 06:08:50;;;;;;;11.07;4.47;;;;;;;;;;5078644;28;20081;-44
2023/04/04 06:11:21;;;;;;;12.47;3.60;;;;;;;;;;5074594;28;20042;-44
2023/04/04 06:13:49;;;;;;;10.80;4.03;;;;;;;;;;5077578;28;20048;-44
2023/04/04 06:16:17;;;;;;;11.70;3.78;;;;;;;;;;5081988;28;20135;-43
2023/04/04 06:18:45;;;;;;;13.75;4.22;;;;;;;;;;5071984;28;20039;-44
2023/04/04 06:21:14;;;;;;;13.55;4.20;;;;;;;;;;5089248;28;20075;-44
2023/04/04 06:23:42;;;;;;;13.03;3.70;;;;;;;;;;5073206;28;20047;-44
2023/04/04 06:26:09;;;;;;;14.32;3.80;;;;;;;;;;5092803;28;20396;-42
2023/04/04 06:28:38;;;;;;;12.73;4.60;;;;;;;;;;5075682;28;20591;-43
2023/04/04 06:31:05;;;;;;;17.25;4.40;;;;;;;;;;5079085;28;20044;-43
2023/04/04 06:33:33;;;;;;;13.02;4.20;;;;;;;;;;5079992;28;20656;-43
2023/04/04 06:36:01;;;;;;;14.20;4.17;;;;;;;;;;5084158;28;20562;-43
2023/04/04 06:38:30;;;;;;;11.25;3.72;;;;;;;;;;5068685;28;20036;-43
2023/04/04 06:40:58;;;;;;;9.20;3.97;;;;;;;;;;5077132;28;20135;-43
2023/04/04 06:43:26;;;;;;;16.50;3.80;;;;;;;;;;5071545;28;20516;-44
2023/04/04 06:45:56;;;;;;;12.43;3.72;;;;;;;;;;5075037;28;20101;-43
2023/04/04 06:48:24;;;;;;;13.00;4.17;;;;;;;;;;5078365;28;20131;-42
2023/04/04 06:50:53;;;;;;;11.15;3.95;;;;;;;;;;5071412;28;20094;-43
2023/04/04 06:53:22;;;;;;;14.02;4.20;;;;;;;;;;5082997;28;20421;-44
2023/04/04 06:55:52;;;;;;;13.73;4.63;;;;;;;;;;5085510;28;20032;-44
2023/04/04 06:58:20;;;;;;;12.05;3.97;;;;;;;;;;5082796;28;20061;-46
2023/04/04 07:00:47;;;;;;;13.77;3.93;;;;;;;;;;5088297;28;20074;-44
2023/04/04 07:03:15;;;;;;;10.82;3.70;;;;;;;;;;5080374;28;20502;-43
2023/04/04 07:05:43;;;;;;;9.63;3.88;;;;;;;;;;5086113;28;20020;-43
2023/04/04 07:08:11;;;;;;;12.52;3.38;;;;;;;;;;5082906;28;20115;-44
2023/04/04 07:10:39;;;;;;;14.35;4.07;;;;;;;;;;5078525;28;20051;-45
2023/04/04 07:13:09;;;;;;;11.70;3.50;;;;;;;;;;5084272;28;20046;-43
2023/04/04 07:15:37;;;;;;;13.98;4.03;;;;;;;;;;5073570;28;20522;-45
2023/04/04 07:18:06;;;;;;;12.85;3.58;;;;;;;;;;5077715;28;20123;-44
2023/04/04 07:20:34;;;;;;;11.50;3.90;;;;;;;;;;5091241;28;20071;-44
2023/04/04 07:23:05;;;;;;;10.32;3.50;;;;;;;;;;5082011;28;20044;-43
2023/04/04 07:25:32;;;;;;;11.43;3.23;;;;;;;;;;5082450;28;20054;-44
2023/04/04 07:28:00;;;;;;;12.10;4.05;;;;;;;;;;5085924;28;20035;-46
2023/04/04 07:30:40;;;;;;;8.60;3.30;;;;;;;;;;5081632;28;20476;-47
2023/04/04 07:33:08;;;;;;;12.77;3.25;;;;;;;;;;5086964;28;20051;-44
2023/04/04 07:35:36;;;;;;;12.27;2.75;;;;;;;;;;5080099;28;20118;-43
2023/04/04 07:38:03;;;;;;;9.50;3.00;;;;;;;;;;5075687;28;20046;-44
2023/04/04 07:40:31;;;;;;;12.75;2.88;;;;;;;;;;5083432;28;20043;-44
2023/04/04 07:42:59;;;;;;;12.65;3.63;;;;;;;;;;5083107;28;20087;-44
2023/04/04 07:45:27;;;;;;;11.82;2.80;;;;;;;;;;5082907;28;20296;-43
2023/04/04 07:47:55;;;;;;;9.05;2.75;;;;;;;;;;5092160;28;20040;-45
2023/04/04 07:50:23;;;;;;;10.10;3.03;;;;;;;;;;5083860;28;20032;-45
2023/04/04 07:52:53;;;;;;;8.20;2.80;;;;;;;;;;5091683;28;20063;-45
2023/04/04 07:55:23;;;;;;;8.73;2.92;;;;;;;;;;5076280;28;20131;-43
2023/04/04 07:57:51;;;;;;;11.30;2.70;;;;;;;;;;5086670;28;20606;-43
2023/04/04 08:00:20;;;;;;;10.40;2.58;;;;;;;;;;5082772;28;20070;-44
2023/04/04 08:02:51;;;;;;;8.60;2.50;;;;;;;;;;5091442;28;20040;-44
2023/04/04 08:05:21;;;;;;;8.48;2.78;;;;;;;;;;5072601;28;20063;-44
2023/04/04 08:07:48;;;;;;;10.45;2.30;;;;;;;;;;5083876;28;20871;-43
2023/04/04 08:10:17;;;;;;;7.30;2.28;;;;;;;;;;5088555;28;20417;-44
2023/04/04 08:12:46;;;;;;;9.25;2.22;;;;;;;;;;4731962;28;10000461;-44
2023/04/04 08:15:13;;;;;;;9.77;1.80;;;;;;;;;;5108270;27;20338;-44
2023/04/04 08:17:42;;;;;;;9.73;1.92;;;;;;;;;;5074671;28;20044;-46
2023/04/04 08:20:11;;;;;;;8.03;2.20;;;;;;;;;;5084107;27;20040;-47
2023/04/04 08:22:40;;;;;;;6.53;1.50;;;;;;;;;;5075716;28;20055;-46
2023/04/04 08:25:09;;;;;;;8.02;1.98;;;;;;;;;;5074354;28;20572;-48
2023/04/04 08:27:39;;;;;;;9.13;2.25;;;;;;;;;;5069932;28;20608;-45
2023/04/04 08:30:10;;;;;;;13.57;2.27;;;;;;;;;;4365698;27;9999932;-46
2023/04/04 08:32:38;;;;;;;8.70;2.28;;;;;;;;;;5071851;28;20566;-47
2023/04/04 08:35:06;;;;;;;8.65;2.45;;;;;;;;;;5061764;28;20052;-45
2023/04/04 08:37:34;;;;;;;8.27;2.08;;;;;;;;;;5070112;28;20043;-44
2023/04/04 08:40:04;;;;;;;8.63;2.57;;;;;;;;;;5056899;28;20596;-45
2023/04/04 08:42:34;;;;;;;9.00;1.98;;;;;;;;;;5071334;28;20520;-46
2023/04/04 08:45:03;;;;;;;12.38;2.50;;;;;;;;;;5069108;28;20827;-46
2023/04/04 08:47:31;;;;;;;9.85;2.30;;;;;;;;;;5076272;28;20036;-44
2023/04/04 08:50:00;;;;;;;7.90;2.13;;;;;;;;;;5068817;28;20043;-45
2023/04/04 08:52:28;;;;;;;7.00;1.80;;;;;;;;;;5068846;28;20050;-46
2023/04/04 08:54:56;;;;;;;7.80;2.30;;;;;;;;;;5068340;28;20048;-45
2023/04/04 08:57:26;;;;;;;10.60;2.05;;;;;;;;;;5064955;28;20199;-44
2023/04/04 08:59:54;;;;;;;9.98;2.38;;;;;;;;;;5072700;28;20088;-46
2023/04/04 09:02:24;;;;;;;9.82;2.17;;;;;;;;;;5071480;28;20092;-46
2023/04/04 09:04:52;;;;;;;7.80;2.50;;;;;;;;;;5067106;28;20128;-44
2023/04/04 09:07:33;;;;;;;8.23;2.15;;;;;;;;;;5074928;28;20637;-45
2023/04/04 09:10:04;;;;;;;6.95;2.10;;;;;;;;;;5060987;28;20109;-44
2023/04/04 09:12:36;;;;;;;10.05;2.30;;;;;;;;;;5078731;27;20054;-44
2023/04/04 09:15:03;;;;;;;7.68;2.55;;;;;;;;;;5073919;28;20101;-45
2023/04/04 09:17:31;;;;;;;6.30;1.87;;;;;;;;;;5077387;28;20040;-47
2023/04/04 09:20:02;;;;;;;6.75;1.90;;;;;;;;;;5065771;28;20832;-44
2023/04/04 09:22:31;;;;;;;8.25;2.13;;;;;;;;;;5054097;28;20044;-45
2023/04/04 09:24:59;;;;;;;7.13;2.08;;;;;;;;;;5071940;28;20044;-45
2023/04/04 09:27:27;;;;;;;6.20;1.67;;;;;;;;;;5067882;28;20089;-44
2023/04/04 09:29:59;;;;;;;8.00;2.47;;;;;;;;;;5068033;28;20057;-46
2023/04/04 09:32:31;;;;;;;7.15;1.83;;;;;;;;;;5069304;28;20047;-46
2023/04/04 09:34:58;;;;;;;6.85;2.22;;;;;;;;;;5068655;28;20047;-45
2023/04/04 09:37:27;;;;;;;5.60;1.90;;;;;;;;;;5071413;28;20048;-45
2023/04/04 09:39:55;;;;;;;7.40;2.00;;;;;;;;;;5069735;28;20130;-44
2023/04/04 09:42:25;;;;;;;7.70;1.90;;;;;;;;;;5074703;27;20035;-44
2023/04/04 09:44:53;;;;;;;9.40;1.95;;;;;;;;;;5070930;28;20076;-46
2023/04/04 09:47:26;;;;;;;7.65;1.65;;;;;;;;;;5073850;28;20113;-45
2023/04/04 09:49:58;;;;;;;6.90;1.45;;;;;;;;;;5065817;28;20134;-46
2023/04/04 09:52:25;;;;;;;9.40;1.90;;;;;;;;;;5077245;28;20040;-45
2023/04/04 09:54:57;;;;;;;6.20;1.57;;;;;;;;;;5059739;28;20031;-45
2023/04/04 09:57:26;;;;;;;7.28;1.80;;;;;;;;;;5071442;28;20070;-46
2023/04/04 09:59:56;;;;;;;8.50;1.40;;;;;;;;;;5060164;28;20040;-45
2023/04/04 10:02:25;;;;;;;6.95;1.60;;;;;;;;;;5067426;28;20039;-44
2023/04/04 10:04:56;;;;;;;6.95;1.55;;;;;;;;;;5075189;28;20039;-46
2023/04/04 10:07:33;;;;;;;5.10;1.53;;;;;;;;;;5066000;28;20074;-47
2023/04/04 10:10:01;;;;;;;7.10;1.95;;;;;;;;;;5064057;28;20051;-46
2023/04/04 10:12:30;;;;;;;4.90;1.65;;;;;;;;;;5070224;28;20562;-47
2023/04/04 10:14:58;;;;;;;6.05;1.83;;;;;;;;;;5072996;28;20130;-45
2023/04/04 10:17:30;;;;;;;6.65;1.70;;;;;;;;;;5071474;28;20562;-44
2023/04/04 10:19:59;;;;;;;6.70;1.80;;;;;;;;;;5072525;28;20136;-44
2023/04/04 10:22:27;;;;;;;7.43;2.00;;;;;;;;;;5060477;28;20048;-46
2023/04/04 10:24:55;;;;;;;7.50;1.75;;;;;;;;;;5071926;28;20101;-46
2023/04/04 10:27:22;;;;;;;8.15;1.63;;;;;;;;;;5062843;28;20644;-44
2023/04/04 10:29:50;;;;;;;6.97;2.13;;;;;;;;;;4360902;27;9999924;-50
2023/04/04 10:32:23;;;;;;;7.65;1.80;;;;;;;;;;5068769;28;20023;-46
2023/04/04 10:34:56;;;;;;;7.57;1.67;;;;;;;;;;5062986;28;20409;-45
2023/04/04 10:37:26;;;;;;;5.47;1.65;;;;;;;;;;5067374;28;20389;-45
2023/04/04 10:40:13;;;;;;;4.70;1.67;;;;;;;;;;5057431;28;20050;-45
2023/04/04 10:42:46;;;;;;;9.80;1.73;;;;;;;;;;5071611;28;20110;-45
2023/04/04 10:45:15;;;;;;;5.50;1.30;;;;;;;;;;5068116;28;20285;-45
2023/04/04 10:47:49;;;;;;;6.10;1.60;;;;;;;;;;5076668;28;20574;-46
2023/04/04 10:50:19;;;;;;;8.48;1.75;;;;;;;;;;5063157;28;20063;-48
2023/04/04 10:52:47;;;;;;;7.10;1.83;;;;;;;;;;5068392;28;20043;-49
2023/04/04 10:55:16;;;;;;;8.75;1.75;;;;;;;;;;5064984;28;20131;-48
2023/04/04 10:57:46;;;;;;;7.05;2.30;;;;;;;;;;5071679;28;20171;-46
2023/04/04 11:00:16;;;;;;;6.90;1.98;;;;;;;;;;5070636;28;20584;-46
2023/04/04 11:02:50;;;;;;;6.55;2.17;;;;;;;;;;5076615;28;20485;-46
2023/04/04 11:05:23;;;;;;;6.83;1.70;;;;;;;;;;5065637;28;20047;-44
2023/04/04 11:07:56;;;;;;;7.03;2.28;;;;;;;;;;5063783;28;20109;-44
2023/04/04 11:10:35;;;;;;;6.40;2.15;;;;;;;;;;5060701;28;20062;-48
2023/04/04 11:13:10;;;;;;;7.63;2.45;;;;;;;;;;5072442;28;20067;-46
2023/04/04 11:15:47;;;;;;;7.28;2.13;;;;;;;;;;5095322;27;20062;-46
2023/04/04 11:18:15;;;;;;;6.97;2.07;;;;;;;;;;5071490;28;20039;-46
2023/04/04 11:21:04;;;;;;;8.70;2.35;;;;;;;;;;5061835;28;20040;-44
2023/04/04 11:23:58;;;;;;;6.40;2.33;;;;;;;;;;5075107;28;20051;-46
2023/04/04 11:26:35;;;;;;;6.80;2.45;;;;;;;;;;5072794;28;20671;-47
2023/04/04 11:29:03;;;;;;;6.82;2.35;;;;;;;;;;5062608;28;20046;-48
2023/04/04 11:31:33;;;;;;;5.60;1.83;;;;;;;;;;5053340;28;20432;-45
2023/04/04 11:34:03;;;;;;;7.45;2.17;;;;;;;;;;5068581;28;20036;-45
2023/04/04 11:36:52;;;;;;;8.13;2.10;;;;;;;;;;5072175;28;20040;-44
2023/04/04 11:39:49;;;;;;;7.10;2.30;;;;;;;;;;5059629;28;20708;-45
2023/04/04 11:42:20;;;;;;;6.68;2.22;;;;;;;;;;5067387;28;20030;-44
2023/04/04 11:45:03;;;;;;;8.83;2.10;;;;;;;;;;5073982;28;20043;-45
2023/04/04 11:47:31;;;;;;;9.18;2.60;;;;;;;;;;5075569;28;20108;-45
2023/04/04 11:50:00;;;;;;;7.95;2.13;;;;;;;;;;5055620;28;20054;-45
2023/04/04 11:52:33;;;;;;;9.60;2.60;;;;;;;;;;5066169;28;20052;-45
2023/04/04 11:55:01;;;;;;;6.40;2.20;;;;;;;;;;5066131;28;20783;-48
2023/04/04 11:57:29;;;;;;;9.73;2.40;;;;;;;;;;5065353;28;20131;-44
2023/04/04 11:59:56;;;;;;;8.30;1.95;;;;;;;;;;5058687;28;20444;-44
2023/04/04 12:02:26;;;;;;;7.43;2.55;;;;;;;;;;5045969;28;20289;-44
2023/04/04 12:04:54;;;;;;;4.30;1.05;;;;;;;;;;5075219;28;20058;-45
2023/04/04 12:07:23;;;;;;;6.80;2.38;;;;;;;;;;5064694;28;20051;-46
2023/04/04 12:09:52;;;;;;;9.23;2.57;;;;;;;;;;5063876;28;20102;-46
2023/04/04 12:12:22;;;;;;;7.20;2.53;;;;;;;;;;5063996;28;20040;-45
2023/04/04 12:14:51;;;;;;;9.77;2.28;;;;;;;;;;5073656;28;20798;-45
2023/04/04 12:17:21;;;;;;;10.43;1.90;;;;;;;;;;5070089;28;20039;-46
2023/04/04 12:19:49;;;;;;;11.07;2.05;;;;;;;;;;5063723;28;20152;-45
2023/04/04 12:22:16;;;;;;;8.47;2.20;;;;;;;;;;5048233;28;20147;-49
2023/04/04 12:24:44;;;;;;;8.40;2.33;;;;;;;;;;5070647;28;20454;-45
2023/04/04 12:27:14;;;;;;;7.38;2.10;;;;;;;;;;5067737;28;20054;-47
2023/04/04 12:29:44;;;;;;;7.03;2.13;;;;;;;;;;5060979;28;20104;-46
2023/04/04 12:32:13;;;;;;;5.90;1.52;;;;;;;;;;5070183;27;20044;-47
2023/04/04 12:34:42;;;;;;;6.43;2.43;;;;;;;;;;4709587;27;10000546;-47
2023/04/04 12:37:18;;;;;;;6.75;2.38;;;;;;;;;;5064271;27;20060;-47
2023/04/04 12:39:48;;;;;;;7.47;2.90;;;;;;;;;;5058703;28;20043;-47
2023/04/04 12:42:22;;;;;;;9.60;1.67;;;;;;;;;;5063407;28;20051;-46
2023/04/04 12:44:50;;;;;;;6.95;2.50;;;;;;;;;;5071204;28;20139;-47
2023/04/04 12:47:19;;;;;;;8.90;2.30;;;;;;;;;;5065381;28;20360;-45
2023/04/04 12:49:48;;;;;;;14.48;2.70;;;;;;;;;;5059271;28;20050;-44
2023/04/04 12:52:19;;;;;;;8.10;2.97;;;;;;;;;;5063740;28;20978;-45
2023/04/04 12:54:48;;;;;;;8.27;2.57;;;;;;;;;;4712760;27;10000434;-46
2023/04/04 12:57:35;;;;;;;8.23;2.22;;;;;;;;;;5070525;28;20047;-48
2023/04/04 13:00:05;;;;;;;9.05;2.70;;;;;;;;;;5046601;28;20742;-45
2023/04/04 13:02:34;;;;;;;6.83;2.80;;;;;;;;;;5073225;28;20113;-45
2023/04/04 13:05:02;;;;;;;7.05;2.38;;;;;;;;;;5054365;28;20569;-44
2023/04/04 13:07:31;;;;;;;9.60;2.38;;;;;;;;;;5075523;28;20452;-45
2023/04/04 13:10:01;;;;;;;7.18;2.58;;;;;;;;;;5063660;28;20520;-45
2023/04/04 13:12:44;;;;;;;6.40;1.40;;;;;;;;;;5062841;28;20062;-46
2023/04/04 13:15:13;;;;;;;9.40;2.93;;;;;;;;;;5074181;28;20119;-46
2023/04/04 13:17:42;;;;;;;7.82;2.58;;;;;;;;;;5066019;28;21257;-44
2023/04/04 13:20:10;;;;;;;7.07;2.13;;;;;;;;;;5065895;28;20065;-46
2023/04/04 13:22:38;;;;;;;9.75;2.42;;;;;;;;;;5067386;28;20055;-45
2023/04/04 13:25:07;;;;;;;5.72;1.65;;;;;;;;;;5073438;28;20072;-47
2023/04/04 13:27:35;;;;;;;6.73;2.17;;;;;;;;;;5063307;28;20044;-47
2023/04/04 13:30:02;;;;;;;7.07;2.78;;;;;;;;;;5079145;27;20039;-44
2023/04/04 13:32:31;;;;;;;7.10;2.80;;;;;;;;;;5067237;28;20179;-44
2023/04/04 13:34:59;;;;;;;6.85;2.88;;;;;;;;;;5071040;28;20035;-45
2023/04/04 13:37:27;;;;;;;12.93;2.90;;;;;;;;;;5063780;28;20540;-46
2023/04/04 13:39:54;;;;;;;7.37;3.00;;;;;;;;;;5051785;28;20719;-44
2023/04/04 13:42:25;;;;;;;7.03;2.45;;;;;;;;;;5062684;28;20032;-44
2023/04/04 13:44:53;;;;;;;9.90;2.55;;;;;;;;;;5074736;28;20611;-46
2023/04/04 13:47:21;;;;;;;5.72;2.60;;;;;;;;;;5059637;28;20126;-44
2023/04/04 13:49:51;;;;;;;8.60;2.78;;;;;;;;;;5061253;28;20039;-44
2023/04/04 13:52:19;;;;;;;7.83;2.77;;;;;;;;;;5068262;28;20620;-44
2023/04/04 13:54:46;;;;;;;7.45;2.50;;;;;;;;;;5068167;28;20127;-47
2023/04/04 13:57:15;;;;;;;8.70;2.67;;;;;;;;;;5069441;28;20047;-44
2023/04/04 13:59:43;;;;;;;8.88;3.08;;;;;;;;;;5069929;28;20048;-44
2023/04/04 14:02:11;;;;;;;8.48;3.10;;;;;;;;;;5064867;28;20441;-43
2023/04/04 14:04:39;;;;;;;8.93;3.10;;;;;;;;;;5077556;28;20039;-44
2023/04/04 14:07:08;;;;;;;9.90;3.05;;;;;;;;;;5070189;28;20032;-45
2023/04/04 14:09:36;;;;;;;4.85;1.20;;;;;;;;;;5069103;28;20968;-45
2023/04/04 14:12:04;;;;;;;6.28;2.03;;;;;;;;;;5066153;28;20039;-45
2023/04/04 14:14:32;;;;;;;8.07;3.05;;;;;;;;;;5071221;28;20038;-44
2023/04/04 14:17:04;;;;;;;7.73;2.70;;;;;;;;;;5075573;28;20047;-45
2023/04/04 14:19:31;;;;;;;8.57;3.17;;;;;;;;;;5063660;28;20158;-44
2023/04/04 14:21:59;;;;;;;9.60;3.40;;;;;;;;;;5061399;28;20088;-44
2023/04/04 14:24:28;;;;;;;10.27;4.15;;;;;;;;;;5066955;28;20043;-45
2023/04/04 14:26:56;;;;;;;9.90;3.63;;;;;;;;;;5071846;28;20160;-48
2023/04/04 14:29:24;;;;;;;11.13;3.57;;;;;;;;;;5069819;28;20039;-44
2023/04/04 14:31:54;;;;;;;8.75;3.10;;;;;;;;;;5069334;28;20683;-46
2023/04/04 14:34:25;;;;;;;7.30;2.45;;;;;;;;;;5060703;28;20238;-45
2023/04/04 14:36:53;;;;;;;12.95;4.82;;;;;;;;;;5075697;28;20512;-44
2023/04/04 14:39:21;;;;;;;10.85;4.45;;;;;;;;;;5071016;28;20413;-45
2023/04/04 14:41:50;;;;;;;13.23;5.27;;;;;;;;;;5051764;28;20052;-46
2023/04/04 14:44:20;;;;;;;14.27;5.28;;;;;;;;;;5067293;28;22732;-47
2023/04/04 14:46:47;;;;;;;13.07;5.60;;;;;;;;;;5071279;28;20080;-44
2023/04/04 14:49:15;;;;;;;12.45;5.50;;;;;;;;;;5072714;28;20036;-46